createdAt,value
2018-09-25T00:02:12.881Z,7.70
2018-09-25T00:04:46.579Z,7.70
2018-09-25T00:07:20.304Z,7.70
2018-09-25T00:09:54.025Z,7.70
2018-09-25T00:12:27.834Z,7.70
2018-09-25T00:15:01.527Z,7.70
2018-09-25T00:17:35.335Z,7.60
2018-09-25T00:20:08.887Z,7.50
2018-09-25T00:22:42.649Z,7.50
2018-09-25T00:25:16.363Z,7.50
2018-09-25T00:27:50.092Z,7.50
2018-09-25T00:30:23.875Z,7.50
2018-09-25T00:32:57.725Z,7.60
2018-09-25T00:35:31.309Z,7.70
2018-09-25T00:38:04.903Z,7.80
2018-09-25T00:40:38.511Z,7.80
2018-09-25T00:43:12.291Z,7.90
2018-09-25T00:45:46.016Z,7.90
2018-09-25T00:48:19.708Z,7.90
2018-09-25T00:50:53.411Z,7.90
2018-09-25T00:53:27.232Z,7.80
2018-09-25T00:56:00.904Z,7.80
2018-09-25T00:58:34.616Z,7.70
2018-09-25T01:01:08.223Z,7.70
2018-09-25T01:03:41.875Z,7.70
2018-09-25T01:06:15.635Z,7.60
2018-09-25T01:08:49.455Z,7.60
2018-09-25T01:11:23.243Z,7.70
2018-09-25T01:13:56.899Z,7.80
2018-09-25T01:16:30.658Z,7.80
2018-09-25T01:19:04.514Z,7.90
2018-09-25T01:21:38.167Z,7.90
2018-09-25T01:24:11.943Z,7.90
2018-09-25T01:26:45.682Z,7.90
2018-09-25T01:29:19.478Z,7.90
2018-09-25T01:31:53.281Z,7.90
2018-09-25T01:34:27.037Z,7.90
2018-09-25T01:37:00.791Z,7.90
2018-09-25T01:39:34.508Z,7.90
2018-09-25T01:42:08.299Z,7.90
2018-09-25T01:44:41.962Z,7.90
2018-09-25T01:47:15.555Z,8.00
2018-09-25T01:49:49.324Z,8.00
2018-09-25T01:52:23.063Z,8.00
2018-09-25T01:54:56.849Z,8.00
2018-09-25T01:57:30.567Z,8.00
2018-09-25T02:00:04.227Z,8.00
2018-09-25T02:02:37.965Z,8.10
2018-09-25T02:05:11.644Z,8.10
2018-09-25T02:07:45.364Z,8.10
2018-09-25T02:10:19.067Z,8.10
2018-09-25T02:12:52.778Z,8.10
2018-09-25T02:15:26.448Z,8.00
2018-09-25T02:18:00.162Z,8.00
2018-09-25T02:20:33.829Z,8.00
2018-09-25T02:23:07.447Z,8.00
2018-09-25T02:25:41.186Z,8.00
2018-09-25T02:28:14.995Z,8.00
2018-09-25T02:30:48.711Z,8.00
2018-09-25T02:33:22.510Z,8.00
2018-09-25T02:35:56.264Z,8.00
2018-09-25T02:38:30.018Z,8.00
2018-09-25T02:41:03.727Z,8.00
2018-09-25T02:43:37.516Z,8.00
2018-09-25T02:46:11.338Z,8.00
2018-09-25T02:48:45.096Z,8.10
2018-09-25T02:51:18.892Z,8.10
2018-09-25T02:53:52.650Z,8.10
2018-09-25T02:56:26.460Z,8.10
2018-09-25T02:59:00.275Z,8.20
2018-09-25T03:01:34.024Z,8.20
2018-09-25T03:04:07.779Z,8.30
2018-09-25T03:06:41.588Z,8.30
2018-09-25T03:09:15.366Z,8.20
2018-09-25T03:11:49.083Z,8.20
2018-09-25T03:14:22.777Z,8.20
2018-09-25T03:16:56.491Z,8.30
2018-09-25T03:19:30.328Z,8.20
2018-09-25T03:22:04.109Z,8.30
2018-09-25T03:24:37.883Z,8.30
2018-09-25T03:27:11.615Z,8.20
2018-09-25T03:29:45.338Z,8.20
2018-09-25T03:32:19.136Z,8.10
2018-09-25T03:34:52.948Z,8.00
2018-09-25T03:37:26.654Z,8.00
2018-09-25T03:40:00.450Z,8.00
2018-09-25T03:42:34.188Z,8.00
2018-09-25T03:45:07.931Z,7.90
2018-09-25T03:47:41.663Z,8.00
2018-09-25T03:50:15.359Z,8.00
2018-09-25T03:52:49.115Z,8.00
2018-09-25T03:55:22.792Z,8.00
2018-09-25T03:57:56.503Z,8.00
2018-09-25T04:00:30.194Z,8.00
2018-09-25T04:03:03.982Z,8.00
2018-09-25T04:05:37.636Z,8.00
2018-09-25T04:08:11.314Z,7.90
2018-09-25T04:10:45.100Z,7.90
2018-09-25T04:13:18.825Z,7.90
2018-09-25T04:15:52.547Z,7.80
2018-09-25T04:18:26.339Z,7.80
2018-09-25T04:21:00.027Z,7.70
2018-09-25T04:23:33.771Z,7.70
2018-09-25T04:26:07.420Z,7.70
2018-09-25T04:28:41.378Z,7.70
2018-09-25T04:31:15.063Z,7.70
2018-09-25T04:33:48.855Z,7.70
2018-09-25T04:36:22.559Z,7.60
2018-09-25T04:38:56.311Z,7.60
2018-09-25T04:41:29.948Z,7.50
2018-09-25T04:44:03.661Z,7.50
2018-09-25T04:46:37.382Z,7.50
2018-09-25T04:49:11.194Z,7.50
2018-09-25T04:51:44.879Z,7.50
2018-09-25T04:54:18.592Z,7.40
2018-09-25T04:56:52.302Z,7.40
2018-09-25T04:59:26.008Z,7.40
2018-09-25T05:01:59.824Z,7.40
2018-09-25T05:04:33.559Z,7.40
2018-09-25T05:07:07.315Z,7.40
2018-09-25T05:09:41.067Z,7.30
2018-09-25T05:12:14.907Z,7.30
2018-09-25T05:14:48.649Z,7.30
2018-09-25T05:17:22.418Z,7.20
2018-09-25T05:19:56.175Z,7.20
2018-09-25T05:22:29.962Z,7.20
2018-09-25T05:25:03.604Z,7.20
2018-09-25T05:27:37.363Z,7.20
2018-09-25T05:30:11.101Z,7.20
2018-09-25T05:32:44.820Z,7.20
2018-09-25T05:35:18.646Z,7.30
2018-09-25T05:37:52.507Z,7.40
2018-09-25T05:40:26.191Z,7.30
2018-09-25T05:42:59.999Z,7.40
2018-09-25T05:45:33.703Z,7.40
2018-09-25T05:48:07.544Z,7.40
2018-09-25T05:50:41.085Z,7.40
2018-09-25T05:53:14.815Z,7.50
2018-09-25T05:55:48.547Z,7.50
2018-09-25T05:58:22.351Z,7.50
2018-09-25T06:01:02.799Z,7.50
2018-09-25T06:03:36.596Z,7.40
2018-09-25T06:06:10.255Z,7.40
2018-09-25T06:08:43.919Z,7.40
2018-09-25T06:11:17.579Z,7.40
2018-09-25T06:13:51.235Z,7.50
2018-09-25T06:16:24.887Z,7.50
2018-09-25T06:18:58.678Z,7.60
2018-09-25T06:21:32.390Z,7.60
2018-09-25T06:24:06.081Z,7.70
2018-09-25T06:26:39.852Z,7.80
2018-09-25T06:29:13.508Z,7.70
2018-09-25T06:31:47.259Z,7.70
2018-09-25T06:34:21.070Z,7.70
2018-09-25T06:36:54.638Z,7.80
2018-09-25T06:39:28.368Z,7.80
2018-09-25T06:42:02.136Z,7.90
2018-09-25T06:44:35.639Z,7.90
2018-09-25T06:47:09.420Z,7.90
2018-09-25T06:49:43.083Z,8.00
2018-09-25T06:52:16.743Z,8.10
2018-09-25T06:54:50.413Z,8.20
2018-09-25T06:57:23.881Z,8.30
2018-09-25T06:59:57.617Z,8.40
2018-09-25T07:02:31.291Z,8.40
2018-09-25T07:05:05.099Z,8.50
2018-09-25T07:07:38.817Z,8.40
2018-09-25T07:10:12.985Z,8.40
2018-09-25T07:12:46.492Z,8.50
2018-09-25T07:15:20.241Z,8.60
2018-09-25T07:17:54.151Z,8.60
2018-09-25T07:20:27.546Z,8.70
2018-09-25T07:23:01.228Z,8.80
2018-09-25T07:25:34.851Z,9.00
2018-09-25T07:28:08.526Z,9.30
2018-09-25T07:30:42.115Z,9.50
2018-09-25T07:33:15.871Z,9.40
2018-09-25T07:35:49.571Z,9.50
2018-09-25T07:38:23.347Z,9.60
2018-09-25T07:40:57.159Z,9.80
2018-09-25T07:43:30.879Z,9.90
2018-09-25T07:46:04.699Z,9.90
2018-09-25T07:48:38.475Z,10.00
2018-09-25T07:51:12.276Z,10.20
2018-09-25T07:53:46.018Z,10.60
2018-09-25T07:56:19.817Z,11.60
2018-09-25T07:58:53.660Z,12.90
2018-09-25T08:01:27.446Z,14.30
2018-09-25T08:04:01.251Z,15.60
2018-09-25T08:06:35.053Z,16.80
2018-09-25T08:09:10.232Z,17.50
2018-09-25T08:11:44.546Z,18.40
2018-09-25T08:14:18.430Z,18.50
2018-09-25T08:16:52.215Z,18.50
2018-09-25T08:19:26.021Z,19.50
2018-09-25T08:21:59.748Z,20.60
2018-09-25T08:24:33.319Z,21.50
2018-09-25T08:27:06.948Z,21.80
2018-09-25T08:29:40.587Z,21.80
2018-09-25T08:32:14.240Z,21.70
2018-09-25T08:34:47.923Z,22.30
2018-09-25T08:37:21.631Z,22.50
2018-09-25T08:39:55.407Z,23.10
2018-09-25T08:42:29.052Z,23.40
2018-09-25T08:45:02.683Z,23.10
2018-09-25T08:47:36.343Z,22.60
2018-09-25T08:50:10.196Z,22.90
2018-09-25T08:52:43.949Z,22.90
2018-09-25T08:55:17.655Z,23.10
2018-09-25T08:57:51.527Z,23.70
2018-09-25T09:00:25.164Z,24.60
2018-09-25T09:02:58.898Z,24.90
2018-09-25T09:05:32.744Z,24.70
2018-09-25T09:08:06.494Z,24.80
2018-09-25T09:10:40.352Z,24.60
2018-09-25T09:13:14.125Z,24.60
2018-09-25T09:15:47.947Z,24.50
2018-09-25T09:18:21.619Z,24.60
2018-09-25T09:20:55.504Z,24.60
2018-09-25T09:23:29.244Z,24.90
2018-09-25T09:26:02.968Z,25.60
2018-09-25T09:28:36.741Z,25.70
2018-09-25T09:31:10.387Z,26.00
2018-09-25T09:33:43.991Z,26.20
2018-09-25T09:36:17.671Z,26.30
2018-09-25T09:38:51.354Z,26.50
2018-09-25T09:41:25.039Z,26.60
2018-09-25T09:43:58.563Z,26.10
2018-09-25T09:46:32.268Z,26.30
2018-09-25T09:49:05.965Z,26.70
2018-09-25T09:51:39.589Z,26.70
2018-09-25T09:54:13.301Z,26.40
2018-09-25T09:56:46.914Z,26.30
2018-09-25T09:59:20.709Z,26.10
2018-09-25T10:01:54.376Z,26.30
2018-09-25T10:04:28.031Z,25.30
2018-09-25T10:07:01.828Z,24.40
2018-09-25T10:09:35.667Z,22.90
2018-09-25T10:12:09.415Z,21.90
2018-09-25T10:14:43.143Z,21.00
2018-09-25T10:17:16.996Z,20.30
2018-09-25T10:19:50.784Z,19.60
2018-09-25T10:22:24.560Z,19.20
2018-09-25T10:24:58.364Z,18.80
2018-09-25T10:27:32.176Z,18.70
2018-09-25T10:30:06.020Z,18.50
2018-09-25T10:32:39.912Z,18.50
2018-09-25T10:35:13.684Z,18.60
2018-09-25T10:37:47.415Z,18.70
2018-09-25T10:40:21.191Z,19.00
2018-09-25T10:42:54.951Z,19.20
2018-09-25T10:45:28.715Z,19.80
2018-09-25T10:48:02.317Z,20.40
2018-09-25T10:50:36.139Z,20.70
2018-09-25T10:53:09.838Z,20.70
2018-09-25T10:55:43.661Z,21.10
2018-09-25T10:58:18.205Z,20.90
2018-09-25T11:00:51.800Z,20.30
2018-09-25T11:03:25.604Z,19.90
2018-09-25T11:05:59.322Z,19.80
2018-09-25T11:08:32.925Z,19.20
2018-09-25T11:11:06.640Z,18.70
2018-09-25T11:13:40.408Z,18.30
2018-09-25T11:16:14.076Z,18.00
2018-09-25T11:18:47.821Z,17.80
2018-09-25T11:21:21.604Z,17.80
2018-09-25T11:23:55.415Z,18.00
2018-09-25T11:26:29.207Z,18.60
2018-09-25T11:29:03.075Z,18.90
2018-09-25T11:31:36.729Z,19.30
2018-09-25T11:34:10.930Z,19.80
2018-09-25T11:36:44.702Z,20.20
2018-09-25T11:39:18.582Z,20.40
2018-09-25T11:41:52.391Z,20.50
2018-09-25T11:44:26.142Z,20.60
2018-09-25T11:47:00.733Z,20.60
2018-09-25T11:49:34.704Z,20.40
2018-09-25T11:52:08.287Z,20.00
2018-09-25T11:54:42.035Z,19.90
2018-09-25T11:57:15.716Z,20.00
2018-09-25T11:59:49.431Z,20.20
2018-09-25T12:02:23.024Z,20.20
2018-09-25T12:04:56.716Z,20.10
2018-09-25T12:07:30.403Z,20.00
2018-09-25T12:10:04.221Z,19.90
2018-09-25T12:12:37.992Z,19.80
2018-09-25T12:15:11.775Z,19.70
2018-09-25T12:17:45.480Z,19.60
2018-09-25T12:20:19.288Z,19.40
2018-09-25T12:22:52.922Z,19.20
2018-09-25T12:25:26.537Z,19.10
2018-09-25T12:28:00.251Z,18.80
2018-09-25T12:30:34.032Z,18.60
2018-09-25T12:33:07.941Z,18.20
2018-09-25T12:35:42.231Z,17.90
2018-09-25T12:38:15.898Z,17.70
2018-09-25T12:40:49.748Z,17.40
2018-09-25T12:43:24.439Z,17.20
2018-09-25T12:45:58.191Z,17.20
2018-09-25T12:48:31.999Z,17.10
2018-09-25T12:51:05.770Z,17.00
2018-09-25T12:53:39.479Z,17.00
2018-09-25T12:56:13.289Z,16.90
2018-09-25T12:58:47.223Z,16.90
2018-09-25T13:01:20.825Z,17.00
2018-09-25T13:03:54.633Z,17.00
2018-09-25T13:06:28.303Z,17.10
2018-09-25T13:09:01.965Z,17.20
2018-09-25T13:11:35.696Z,17.20
2018-09-25T13:14:09.408Z,17.20
2018-09-25T13:16:43.203Z,17.20
2018-09-25T13:19:16.931Z,17.10
2018-09-25T13:21:50.744Z,16.90
2018-09-25T13:24:25.034Z,16.70
2018-09-25T13:26:58.785Z,16.50
2018-09-25T13:29:32.582Z,16.40
2018-09-25T13:32:06.239Z,16.40
2018-09-25T13:34:39.964Z,16.30
2018-09-25T13:37:13.699Z,16.30
2018-09-25T13:39:47.323Z,16.30
2018-09-25T13:42:20.856Z,16.30
2018-09-25T13:44:54.564Z,16.20
2018-09-25T13:47:28.152Z,16.20
2018-09-25T13:50:01.828Z,16.20
2018-09-25T13:52:35.353Z,16.20
2018-09-25T13:55:09.084Z,16.10
2018-09-25T13:57:42.799Z,16.10
2018-09-25T14:00:16.512Z,16.00
2018-09-25T14:02:50.303Z,15.90
2018-09-25T14:05:24.111Z,15.80
2018-09-25T14:07:57.831Z,15.80
2018-09-25T14:10:31.636Z,15.80
2018-09-25T14:13:05.428Z,15.70
2018-09-25T14:15:39.253Z,15.70
2018-09-25T14:18:12.875Z,15.70
2018-09-25T14:20:46.651Z,15.70
2018-09-25T14:23:20.388Z,15.80
2018-09-25T14:25:54.262Z,15.90
2018-09-25T14:28:28.088Z,16.10
2018-09-25T14:31:01.852Z,16.10
2018-09-25T14:33:35.667Z,16.20
2018-09-25T14:36:09.402Z,16.20
2018-09-25T14:38:43.182Z,16.20
2018-09-25T14:41:16.993Z,16.20
2018-09-25T14:43:50.724Z,16.20
2018-09-25T14:46:24.499Z,15.90
2018-09-25T14:48:58.326Z,15.80
2018-09-25T14:51:32.140Z,15.80
2018-09-25T14:54:05.776Z,15.70
2018-09-25T14:56:39.475Z,15.70
2018-09-25T14:59:13.255Z,15.80
2018-09-25T15:01:47.048Z,15.80
2018-09-25T15:04:20.894Z,15.80
2018-09-25T15:06:54.660Z,15.70
2018-09-25T15:09:28.467Z,15.70
2018-09-25T15:12:02.277Z,15.70
2018-09-25T15:14:36.122Z,15.70
2018-09-25T15:17:09.780Z,15.70
2018-09-25T15:19:43.391Z,15.60
2018-09-25T15:22:17.195Z,15.50
2018-09-25T15:24:50.743Z,15.50
2018-09-25T15:27:24.542Z,15.40
2018-09-25T15:29:58.293Z,15.40
2018-09-25T15:32:32.135Z,15.50
2018-09-25T15:35:05.816Z,15.50
2018-09-25T15:37:39.561Z,15.50
2018-09-25T15:40:13.346Z,15.40
2018-09-25T15:42:47.143Z,15.40
2018-09-25T15:45:21.995Z,15.30
2018-09-25T15:47:55.835Z,15.30
2018-09-25T15:50:29.488Z,15.20
2018-09-25T15:53:03.299Z,15.10
2018-09-25T15:55:36.980Z,15.10
2018-09-25T15:58:11.034Z,15.10
2018-09-25T16:00:44.683Z,15.10
2018-09-25T16:03:18.357Z,15.10
2018-09-25T16:05:52.098Z,15.10
2018-09-25T16:08:25.863Z,15.10
2018-09-25T16:10:59.547Z,15.00
2018-09-25T16:13:33.227Z,15.00
2018-09-25T16:16:06.898Z,14.90
2018-09-25T16:18:40.744Z,14.80
2018-09-25T16:21:14.543Z,14.80
2018-09-25T16:23:48.263Z,14.80
2018-09-25T16:26:21.879Z,14.80
2018-09-25T16:28:55.509Z,14.70
2018-09-25T16:31:29.065Z,14.70
2018-09-25T16:34:02.736Z,14.60
2018-09-25T16:36:36.444Z,14.60
2018-09-25T16:39:14.039Z,14.50
2018-09-25T16:41:48.322Z,14.40
2018-09-25T16:44:22.347Z,14.40
2018-09-25T16:46:55.956Z,14.30
2018-09-25T16:49:29.583Z,14.30
2018-09-25T16:52:03.425Z,14.30
2018-09-25T16:54:37.215Z,14.20
2018-09-25T16:57:11.016Z,14.20
2018-09-25T17:02:23.475Z,14.20
2018-09-25T17:04:57.253Z,14.10
2018-09-25T17:07:31.064Z,14.10
2018-09-25T17:10:04.872Z,14.00
2018-09-25T17:30:26.586Z,13.90
2018-09-25T17:33:00.390Z,13.50
2018-09-25T17:35:34.224Z,13.40
2018-09-25T17:38:08.157Z,13.40
2018-09-25T17:40:41.922Z,13.30
2018-09-25T17:43:15.581Z,13.20
2018-09-25T17:45:49.268Z,13.10
2018-09-25T17:48:22.942Z,13.10
2018-09-25T17:50:56.815Z,13.00
2018-09-25T17:53:30.616Z,13.00
2018-09-25T17:56:04.324Z,12.90
2018-09-25T17:58:38.193Z,12.90
2018-09-25T18:01:11.988Z,12.80
2018-09-25T18:03:45.820Z,12.80
2018-09-25T18:06:19.440Z,12.80
2018-09-25T18:08:54.392Z,12.70
2018-09-25T18:11:28.851Z,12.60
2018-09-25T18:14:02.621Z,12.50
2018-09-25T18:16:36.474Z,12.50
2018-09-25T18:19:11.485Z,12.60
2018-09-25T18:21:45.278Z,12.50
2018-09-25T18:24:18.915Z,12.50
2018-09-25T18:26:52.757Z,12.40
2018-09-25T18:29:26.597Z,12.30
2018-09-25T18:32:00.427Z,12.30
2018-09-25T18:34:34.272Z,12.20
2018-09-25T18:37:09.052Z,12.20
2018-09-25T18:39:42.995Z,12.20
2018-09-25T18:42:16.655Z,12.10
2018-09-25T18:44:50.326Z,12.10
2018-09-25T18:47:24.177Z,12.00
2018-09-25T18:49:58.947Z,11.90
2018-09-25T18:52:33.607Z,11.80
2018-09-25T18:55:07.556Z,11.80
2018-09-25T18:57:41.499Z,11.80
2018-09-25T19:00:15.176Z,11.70
2018-09-25T19:02:49.028Z,11.70
2018-09-25T19:05:22.793Z,11.70
2018-09-25T19:07:56.563Z,11.70
2018-09-25T19:10:31.776Z,11.70
2018-09-25T19:13:05.374Z,11.60
2018-09-25T19:15:39.105Z,11.60
2018-09-25T19:18:12.877Z,11.60
2018-09-25T19:20:46.506Z,11.60
2018-09-25T19:23:20.097Z,11.60
2018-09-25T19:25:53.691Z,11.60
2018-09-25T19:28:27.672Z,11.50
2018-09-25T19:31:01.574Z,11.50
2018-09-25T19:33:35.284Z,11.50
2018-09-25T19:36:09.089Z,11.50
2018-09-25T19:38:43.572Z,11.50
2018-09-25T19:41:17.295Z,11.50
2018-09-25T19:43:51.037Z,11.50
2018-09-25T19:46:24.817Z,11.50
2018-09-25T19:48:59.294Z,11.40
2018-09-25T19:51:33.032Z,11.40
2018-09-25T19:54:07.079Z,11.30
2018-09-25T19:56:40.860Z,11.30
2018-09-25T19:59:14.580Z,11.30
2018-09-25T20:01:48.318Z,11.20
2018-09-25T20:04:22.173Z,11.20
2018-09-25T20:06:55.853Z,11.10
2018-09-25T20:09:29.559Z,11.00
2018-09-25T20:12:03.393Z,11.00
2018-09-25T20:14:37.141Z,10.90
2018-09-25T20:17:10.904Z,10.90
2018-09-25T20:19:44.774Z,10.90
2018-09-25T20:22:18.283Z,10.80
2018-09-25T20:24:52.256Z,10.70
2018-09-25T20:27:25.964Z,10.70
2018-09-25T20:29:59.691Z,10.70
2018-09-25T20:32:33.391Z,10.60
2018-09-25T20:35:08.372Z,10.60
2018-09-25T20:37:42.124Z,10.70
2018-09-25T20:40:16.547Z,10.70
2018-09-25T20:42:50.364Z,10.70
2018-09-25T20:45:24.255Z,10.70
2018-09-25T20:47:58.046Z,10.70
2018-09-25T20:50:31.644Z,10.60
2018-09-25T20:53:05.296Z,10.60
2018-09-25T20:55:38.996Z,10.60
2018-09-25T20:58:12.733Z,10.50
2018-09-25T21:00:46.625Z,10.40
2018-09-25T21:03:20.281Z,10.50
2018-09-25T21:05:54.002Z,10.40
2018-09-25T21:08:27.852Z,10.40
2018-09-25T21:11:02.468Z,10.40
2018-09-25T21:13:36.341Z,10.40
2018-09-25T21:16:10.102Z,10.40
2018-09-25T21:18:43.762Z,10.40
2018-09-25T21:21:18.000Z,10.40
2018-09-25T21:23:51.798Z,10.50
2018-09-25T21:26:25.672Z,10.40
2018-09-25T21:28:59.477Z,10.40
2018-09-25T21:31:33.164Z,10.40
2018-09-25T21:34:06.927Z,10.30
2018-09-25T21:36:40.742Z,10.30
2018-09-25T21:39:15.196Z,10.30
2018-09-25T21:41:48.716Z,10.20
2018-09-25T21:44:22.461Z,10.20
2018-09-25T21:46:55.984Z,10.20
2018-09-25T21:49:29.700Z,10.20
2018-09-25T21:52:03.457Z,10.20
2018-09-25T21:54:37.228Z,10.20
2018-09-25T21:57:11.639Z,10.20
2018-09-25T21:59:45.357Z,10.10
2018-09-25T22:02:19.078Z,10.10
2018-09-25T22:04:52.699Z,10.10
2018-09-25T22:07:27.451Z,10.10
2018-09-25T22:10:00.929Z,10.10
2018-09-25T22:12:34.866Z,10.00
2018-09-25T22:15:08.664Z,10.00
2018-09-25T22:17:42.273Z,10.00
2018-09-25T22:20:16.206Z,10.00
2018-09-25T22:22:49.864Z,10.00
2018-09-25T22:25:23.569Z,10.00
2018-09-25T22:27:57.313Z,10.00
2018-09-25T22:30:30.932Z,10.00
2018-09-25T22:33:05.034Z,10.00
2018-09-25T22:35:39.187Z,9.90
2018-09-25T22:38:13.009Z,9.90
2018-09-25T22:40:46.788Z,9.90
2018-09-25T22:43:20.608Z,9.90
2018-09-25T22:45:54.707Z,10.00
2018-09-25T22:48:28.423Z,10.00
2018-09-25T22:51:02.170Z,10.00
2018-09-25T22:53:35.922Z,9.90
2018-09-25T22:56:09.672Z,9.90
2018-09-25T22:58:43.469Z,9.90
2018-09-25T23:01:17.325Z,9.90
2018-09-25T23:03:51.206Z,9.90
2018-09-25T23:06:24.786Z,9.90
2018-09-25T23:08:58.457Z,9.80
2018-09-25T23:11:32.080Z,9.80
2018-09-25T23:14:05.766Z,9.80
2018-09-25T23:16:39.415Z,9.80
2018-09-25T23:19:13.099Z,9.70
2018-09-25T23:21:46.682Z,9.70
2018-09-25T23:24:20.311Z,9.70
2018-09-25T23:26:53.895Z,9.70
2018-09-25T23:29:27.742Z,9.70
2018-09-25T23:32:01.567Z,9.70
2018-09-25T23:34:35.203Z,9.70
2018-09-25T23:37:09.570Z,9.70
2018-09-25T23:40:00.483Z,9.60
2018-09-25T23:42:36.973Z,9.60
2018-09-25T23:45:10.778Z,9.60
2018-09-25T23:47:59.763Z,9.60
2018-09-25T23:50:41.411Z,9.50
2018-09-25T23:53:13.291Z,9.50
2018-09-25T23:55:59.788Z,9.50
2018-09-25T23:58:33.420Z,9.40
